Time;durP1;ratioP1;P1;durP2;ratioP2;P2;SDS_P1;SDS_P2;PMS_P1;PMS_P2;Temp;Humidity;BMP_temperature;BMP_pressure;BME280_temperature;BME280_humidity;BME280_pressure;Samples;Min_cycle;Max_cycle;Signal;HPM_P1;HPM_P2
2022/10/19 00:01:14;;;;;;;1.48;1.10;;;;;;;7.94;83.76;102819.38;5006370;28;20113;-78
2022/10/19 00:03:41;;;;;;;2.00;1.20;;;;;;;7.84;83.82;102818.31;5004471;28;20128;-78
2022/10/19 00:06:16;;;;;;;2.65;1.40;;;;;;;7.84;85.59;102818.31;5005198;28;20080;-78
2022/10/19 00:08:43;;;;;;;6.55;1.48;;;;;;;7.85;85.95;102816.63;5004145;28;20037;-77
2022/10/19 00:11:08;;;;;;;3.67;1.70;;;;;;;7.85;86.59;102808.84;5009358;28;20037;-77
2022/10/19 00:13:34;;;;;;;1.70;1.20;;;;;;;7.85;86.73;102804.53;5005446;28;20401;-78
2022/10/19 00:15:59;;;;;;;2.85;1.20;;;;;;;7.85;86.75;102801.06;4999174;28;20045;-78
2022/10/19 00:18:25;;;;;;;2.42;1.13;;;;;;;7.83;86.56;102789.81;4998673;28;20026;-77
2022/10/19 00:20:50;;;;;;;2.13;1.00;;;;;;;7.80;86.14;102793.19;5005816;28;20076;-78
2022/10/19 00:23:15;;;;;;;1.13;0.80;;;;;;;7.74;85.73;102800.88;5011940;28;20034;-78
2022/10/19 00:25:40;;;;;;;1.67;0.90;;;;;;;7.66;85.58;102805.03;5008665;28;20418;-77
2022/10/19 00:28:06;;;;;;;2.78;1.20;;;;;;;7.61;85.83;102802.38;4992806;28;20068;-77
2022/10/19 00:30:31;;;;;;;2.58;1.00;;;;;;;7.58;86.31;102804.91;5010122;28;20458;-77
2022/10/19 00:32:56;;;;;;;3.22;1.13;;;;;;;7.57;86.17;102805.75;5003986;28;20030;-77
2022/10/19 00:35:21;;;;;;;2.20;1.10;;;;;;;7.55;86.40;102800.53;5009716;28;20034;-78
2022/10/19 00:37:47;;;;;;;1.83;1.15;;;;;;;7.58;86.08;102805.78;5012937;28;20428;-77
2022/10/19 00:40:12;;;;;;;2.00;1.00;;;;;;;7.57;85.82;102797.97;5014489;28;20034;-78
2022/10/19 00:42:38;;;;;;;1.75;1.05;;;;;;;7.50;85.81;102790.94;5014569;28;20029;-78
2022/10/19 00:45:12;;;;;;;1.55;1.00;;;;;;;7.50;86.25;102801.31;5013046;28;20025;-77
2022/10/19 00:47:38;;;;;;;2.25;1.25;;;;;;;7.47;85.98;102796.06;5012613;28;20053;-78
2022/10/19 00:50:04;;;;;;;3.30;1.40;;;;;;;7.47;86.46;102798.66;5013220;28;20034;-78
2022/10/19 00:52:30;;;;;;;3.70;1.80;;;;;;;7.47;86.57;102802.09;5013545;28;20087;-77
2022/10/19 00:54:56;;;;;;;3.47;1.52;;;;;;;7.48;86.77;102805.59;5012165;28;20034;-77
2022/10/19 00:57:23;;;;;;;3.38;1.90;;;;;;;7.45;87.15;102811.56;5007407;28;20037;-77
2022/10/19 00:59:48;;;;;;;3.35;1.80;;;;;;;7.46;87.44;102810.72;5014816;28;20417;-77
2022/10/19 01:02:14;;;;;;;3.50;2.17;;;;;;;7.48;87.58;102803.84;5014807;28;20037;-78
2022/10/19 01:04:43;;;;;;;3.38;2.10;;;;;;;7.51;87.73;102798.75;5013991;28;20470;-77
2022/10/19 01:07:09;;;;;;;4.80;2.53;;;;;;;7.54;87.61;102795.31;5012823;28;20029;-77
2022/10/19 01:09:34;;;;;;;5.03;2.30;;;;;;;7.53;87.93;102798.75;5015163;28;20052;-77
2022/10/19 01:12:19;;;;;;;3.42;2.03;;;;;;;7.52;87.20;102802.19;5014468;28;20182;-78
2022/10/19 01:15:02;;;;;;;2.80;1.90;;;;;;;7.51;86.92;102797.88;5015141;28;20032;-78
2022/10/19 01:17:35;;;;;;;2.88;1.80;;;;;;;7.50;87.04;102801.31;5012989;28;20103;-77
2022/10/19 01:20:12;;;;;;;3.95;1.90;;;;;;;7.50;87.38;102793.53;5014317;28;20026;-77
2022/10/19 01:22:58;;;;;;;2.30;1.85;;;;;;;7.51;87.41;102797.88;5013337;28;20033;-77
2022/10/19 01:25:54;;;;;;;4.72;2.05;;;;;;;7.50;87.29;102797.00;5005101;28;20392;-77
2022/10/19 01:28:40;;;;;;;4.43;2.33;;;;;;;7.51;87.70;102787.53;5008139;28;20474;-77
2022/10/19 01:31:17;;;;;;;4.63;2.53;;;;;;;7.51;87.86;102792.69;5012960;28;20036;-77
2022/10/19 01:33:56;;;;;;;4.55;2.40;;;;;;;7.51;88.11;102793.56;5012951;28;20022;-78
2022/10/19 01:36:30;;;;;;;4.97;3.10;;;;;;;7.52;87.81;102787.53;4992218;28;20049;-77
2022/10/19 01:39:12;;;;;;;3.80;2.00;;;;;;;7.51;87.42;102787.53;5011390;28;20030;-77
2022/10/19 01:41:49;;;;;;;4.10;2.53;;;;;;;7.52;88.08;102789.22;5006784;28;20029;-77
2022/10/19 01:44:36;;;;;;;4.70;2.42;;;;;;;7.52;87.86;102784.06;5011243;28;20030;-77
2022/10/19 01:47:06;;;;;;;3.97;2.03;;;;;;;7.50;87.13;102785.78;5008029;28;20054;-78
2022/10/19 01:49:48;;;;;;;4.80;2.30;;;;;;;7.49;87.80;102784.03;5011108;28;20017;-78
2022/10/19 01:52:17;;;;;;;4.47;2.42;;;;;;;7.51;88.32;102790.09;5009087;28;20026;-78
2022/10/19 01:54:48;;;;;;;5.68;2.85;;;;;;;7.53;88.77;102785.81;5007963;28;20550;-77
2022/10/19 01:57:20;;;;;;;5.63;2.95;;;;;;;7.55;88.69;102791.88;5010643;28;20104;-77
2022/10/19 01:59:47;;;;;;;4.57;2.55;;;;;;;7.54;88.77;102782.38;5010892;28;20055;-77
2022/10/19 02:02:14;;;;;;;5.95;2.85;;;;;;;7.57;88.83;102779.84;5002050;28;20032;-77
2022/10/19 02:04:40;;;;;;;8.25;3.10;;;;;;;7.55;88.65;102774.66;5007692;28;20033;-77
2022/10/19 02:07:07;;;;;;;6.90;3.47;;;;;;;7.56;88.88;102780.69;5011421;28;20037;-77
2022/10/19 02:09:32;;;;;;;5.03;3.40;;;;;;;7.58;88.96;102769.53;5013048;28;20050;-77
2022/10/19 02:12:02;;;;;;;4.97;2.83;;;;;;;7.57;88.87;102765.19;5011816;28;20049;-77
2022/10/19 02:14:33;;;;;;;6.82;3.05;;;;;;;7.57;88.66;102765.19;4994337;28;20493;-77
2022/10/19 02:17:10;;;;;;;6.35;2.80;;;;;;;7.58;88.64;102758.28;5011990;28;20100;-78
2022/10/19 02:19:35;;;;;;;6.05;2.80;;;;;;;7.55;88.67;102753.94;5013335;28;20057;-77
2022/10/19 02:22:01;;;;;;;7.30;3.40;;;;;;;7.55;88.84;102747.84;5010865;28;20068;-77
2022/10/19 02:24:26;;;;;;;8.32;3.00;;;;;;;7.52;88.64;102743.50;5011415;28;20034;-77
2022/10/19 02:26:52;;;;;;;6.90;2.95;;;;;;;7.52;88.61;102745.22;5011605;28;20026;-77
2022/10/19 02:29:18;;;;;;;4.22;2.63;;;;;;;7.49;88.24;102733.09;5011950;28;20048;-77
2022/10/19 02:31:44;;;;;;;5.75;2.90;;;;;;;7.44;88.42;102735.59;5010494;28;20052;-77
2022/10/19 02:34:10;;;;;;;3.85;2.80;;;;;;;7.44;88.75;102735.59;5011880;28;20026;-78
2022/10/19 02:36:35;;;;;;;6.30;3.10;;;;;;;7.44;88.64;102734.72;5012369;28;20045;-77
2022/10/19 02:39:01;;;;;;;5.22;3.03;;;;;;;7.43;88.85;102725.19;5011786;28;20117;-77
2022/10/19 02:41:33;;;;;;;6.90;3.00;;;;;;;7.43;88.96;102725.19;5010088;28;20060;-77
2022/10/19 02:44:08;;;;;;;6.63;2.85;;;;;;;7.38;88.57;102714.75;5010259;28;20038;-77
2022/10/19 02:46:41;;;;;;;6.10;2.88;;;;;;;7.37;88.79;102723.38;5011365;28;20095;-77
2022/10/19 02:49:09;;;;;;;5.60;2.80;;;;;;;7.36;89.17;102718.19;5012529;28;20101;-77
2022/10/19 02:51:53;;;;;;;5.53;2.65;;;;;;;7.36;89.17;102710.41;5010138;28;20507;-78
2022/10/19 02:54:18;;;;;;;4.93;2.60;;;;;;;7.38;89.03;102711.31;5009194;28;20030;-78
2022/10/19 02:56:43;;;;;;;6.85;2.72;;;;;;;7.38;89.12;102714.75;5011182;28;20508;-77
2022/10/19 02:59:09;;;;;;;5.85;3.05;;;;;;;7.35;88.98;102708.66;5010490;28;20135;-77
2022/10/19 03:01:34;;;;;;;5.35;2.80;;;;;;;7.36;89.18;102715.59;5009297;28;20048;-77
2022/10/19 03:03:59;;;;;;;5.07;2.70;;;;;;;7.36;89.56;102713.84;5009819;28;20092;-77
2022/10/19 03:06:24;;;;;;;5.72;2.75;;;;;;;7.35;89.42;102719.88;5012359;28;20077;-77
2022/10/19 03:08:50;;;;;;;5.57;2.70;;;;;;;7.34;89.38;102725.94;5013105;28;20161;-77
2022/10/19 03:11:15;;;;;;;4.05;2.42;;;;;;;7.33;89.26;102731.06;5012560;28;20084;-77
2022/10/19 03:13:41;;;;;;;6.38;2.65;;;;;;;7.33;89.51;102731.06;5011857;28;20030;-78
2022/10/19 03:16:07;;;;;;;5.70;2.70;;;;;;;7.31;89.12;102728.47;5011979;28;20022;-77
2022/10/19 03:18:33;;;;;;;4.93;2.45;;;;;;;7.29;88.83;102736.19;5015403;28;20076;-77
2022/10/19 03:21:04;;;;;;;4.05;2.08;;;;;;;7.28;88.86;102725.81;5012269;28;20416;-77
2022/10/19 03:23:29;;;;;;;7.35;2.60;;;;;;;7.27;89.06;102730.09;5011667;28;20026;-77
2022/10/19 03:25:55;;;;;;;5.97;2.60;;;;;;;7.28;89.08;102726.66;5012525;28;20049;-77
2022/10/19 03:28:20;;;;;;;6.85;2.60;;;;;;;7.29;89.09;102719.78;5012647;28;20481;-77
2022/10/19 03:30:45;;;;;;;6.78;2.80;;;;;;;7.29;89.25;102719.78;5010916;28;20037;-77
2022/10/19 03:33:10;;;;;;;5.63;2.78;;;;;;;7.28;89.38;102723.22;5011196;28;20038;-77
2022/10/19 03:35:35;;;;;;;4.57;2.47;;;;;;;7.27;89.15;102716.28;5007542;28;20454;-77
2022/10/19 03:38:01;;;;;;;5.32;2.60;;;;;;;7.26;89.19;102711.97;5010697;28;20033;-77
2022/10/19 03:40:26;;;;;;;5.78;2.75;;;;;;;7.27;89.25;102711.13;5011457;28;20022;-77
2022/10/19 03:42:51;;;;;;;5.63;3.08;;;;;;;7.27;89.23;102721.47;5011703;28;20401;-77
2022/10/19 03:45:17;;;;;;;4.80;2.70;;;;;;;7.25;89.33;102713.69;5009467;28;20088;-77
2022/10/19 03:47:42;;;;;;;5.22;2.63;;;;;;;7.26;89.40;102714.56;5010946;28;20042;-78
2022/10/19 03:50:10;;;;;;;6.53;2.63;;;;;;;7.25;89.26;102715.38;5009594;28;20109;-77
2022/10/19 03:52:35;;;;;;;5.85;2.67;;;;;;;7.22;89.64;102713.63;5010105;28;20022;-77
2022/10/19 03:55:00;;;;;;;5.80;2.97;;;;;;;7.21;89.12;102711.00;4992597;28;20446;-77
2022/10/19 03:57:25;;;;;;;7.78;2.83;;;;;;;7.18;88.93;102718.69;5009362;28;20556;-77
2022/10/19 03:59:51;;;;;;;7.65;2.65;;;;;;;7.16;89.15;102720.41;5010785;28;20025;-77
2022/10/19 04:02:16;;;;;;;5.13;2.70;;;;;;;7.16;89.02;102721.28;5010100;28;20112;-77
2022/10/19 04:04:41;;;;;;;4.63;2.70;;;;;;;7.17;89.23;102732.50;5009744;28;20085;-77
2022/10/19 04:07:06;;;;;;;4.85;2.42;;;;;;;7.15;89.21;102735.06;5010726;28;20088;-77
2022/10/19 04:09:32;;;;;;;3.10;2.17;;;;;;;7.13;89.21;102735.03;5011237;28;20084;-77
2022/10/19 04:11:57;;;;;;;4.70;2.45;;;;;;;7.14;89.03;102739.38;5010163;28;20038;-77
2022/10/19 04:14:24;;;;;;;7.47;2.90;;;;;;;7.13;88.74;102739.31;5009508;28;20080;-77
2022/10/19 04:16:49;;;;;;;7.85;3.35;;;;;;;7.10;88.78;102734.97;5009437;28;20038;-77
2022/10/19 04:19:15;;;;;;;5.90;2.90;;;;;;;7.08;88.97;102728.88;5014541;28;20037;-77
2022/10/19 04:21:42;;;;;;;7.10;2.90;;;;;;;7.05;89.24;102728.81;5015083;28;20096;-77
2022/10/19 04:24:12;;;;;;;5.25;2.70;;;;;;;7.04;89.24;102732.25;5014229;28;20075;-77
2022/10/19 04:26:47;;;;;;;5.38;2.70;;;;;;;7.04;89.38;102734.84;5012097;28;20052;-77
2022/10/19 04:29:13;;;;;;;5.10;2.78;;;;;;;7.01;89.29;102724.44;5013717;28;20041;-77
2022/10/19 04:31:39;;;;;;;5.95;3.00;;;;;;;7.00;89.09;102727.88;5012896;28;20033;-77
2022/10/19 04:34:05;;;;;;;6.80;2.90;;;;;;;6.96;88.96;102726.94;5013061;28;20030;-77
2022/10/19 04:36:31;;;;;;;5.45;2.88;;;;;;;6.95;89.03;102732.94;5013071;28;20080;-77
2022/10/19 04:38:56;;;;;;;5.10;2.90;;;;;;;6.95;89.13;102726.91;5013827;28;20429;-77
2022/10/19 04:41:22;;;;;;;6.38;2.78;;;;;;;6.91;89.51;102718.22;5015154;28;20038;-77
2022/10/19 04:43:52;;;;;;;4.47;2.70;;;;;;;6.91;89.36;102725.97;5015360;28;20508;-77
2022/10/19 04:46:19;;;;;;;6.07;2.72;;;;;;;6.89;89.29;102722.50;4999692;28;20457;-77
2022/10/19 04:48:45;;;;;;;5.05;3.10;;;;;;;6.88;89.36;102722.44;4995705;28;20036;-77
2022/10/19 04:51:11;;;;;;;5.07;2.72;;;;;;;6.84;88.78;102716.34;5013907;28;20057;-77
2022/10/19 04:53:38;;;;;;;4.47;2.83;;;;;;;6.86;89.02;102724.13;5012973;28;20030;-77
2022/10/19 04:56:05;;;;;;;6.43;3.10;;;;;;;6.82;88.96;102716.31;5012010;28;20099;-77
2022/10/19 04:58:30;;;;;;;4.45;3.08;;;;;;;6.81;88.87;102716.28;5013011;28;20052;-77
2022/10/19 05:00:56;;;;;;;6.07;2.60;;;;;;;6.78;88.89;102717.09;4996491;28;20176;-77
2022/10/19 05:03:21;;;;;;;8.68;3.22;;;;;;;6.79;89.94;102716.25;5013659;28;20030;-77
2022/10/19 05:05:47;;;;;;;4.90;2.88;;;;;;;6.77;89.01;102711.88;5013473;28;20076;-77
2022/10/19 05:08:12;;;;;;;7.40;3.88;;;;;;;6.76;89.34;102713.59;5013609;28;20025;-77
2022/10/19 05:10:37;;;;;;;7.38;3.30;;;;;;;6.73;89.22;102718.72;5014288;28;20042;-77
2022/10/19 05:13:03;;;;;;;5.07;2.67;;;;;;;6.73;89.34;102718.72;5014115;28;20037;-77
2022/10/19 05:15:29;;;;;;;5.25;2.95;;;;;;;6.73;89.23;102730.78;5013578;28;20030;-77
2022/10/19 05:17:55;;;;;;;4.72;3.03;;;;;;;6.71;88.78;102725.56;5013275;28;20057;-77
2022/10/19 05:20:20;;;;;;;7.50;3.45;;;;;;;6.71;88.62;102715.22;5014031;28;20388;-77
2022/10/19 05:22:45;;;;;;;6.10;3.25;;;;;;;6.70;88.84;102716.06;5013837;28;20469;-77
2022/10/19 05:25:11;;;;;;;7.40;3.25;;;;;;;6.67;88.92;102713.41;5013749;28;20513;-77
2022/10/19 05:27:36;;;;;;;4.80;3.28;;;;;;;6.66;88.92;102712.53;5014182;28;20038;-77
2022/10/19 05:30:01;;;;;;;5.85;3.25;;;;;;;6.65;88.84;102720.28;5012966;28;20034;-77
2022/10/19 05:32:27;;;;;;;6.30;3.38;;;;;;;6.63;88.90;102711.59;5014251;28;20030;-77
2022/10/19 05:34:52;;;;;;;5.47;3.42;;;;;;;6.62;88.98;102709.88;5013088;28;20155;-77
2022/10/19 05:37:18;;;;;;;4.85;3.20;;;;;;;6.59;89.23;102704.63;5014036;28;20100;-77
2022/10/19 05:39:43;;;;;;;6.35;3.13;;;;;;;6.56;88.92;102699.38;5013991;28;20119;-77
2022/10/19 05:42:08;;;;;;;5.63;3.20;;;;;;;6.53;88.91;102705.38;4996498;28;20120;-77
2022/10/19 05:44:34;;;;;;;8.60;3.13;;;;;;;6.52;89.02;102706.22;5013806;28;20172;-76
2022/10/19 05:47:00;;;;;;;7.75;3.88;;;;;;;6.50;89.39;102700.13;5013730;28;20053;-77
2022/10/19 05:49:25;;;;;;;6.47;3.55;;;;;;;6.51;89.42;102700.16;4995540;28;20030;-76
2022/10/19 05:51:51;;;;;;;8.18;3.75;;;;;;;6.51;89.58;102692.38;5013468;28;20038;-77
2022/10/19 05:54:16;;;;;;;8.43;3.90;;;;;;;6.53;89.52;102689.84;5013405;28;20026;-77
2022/10/19 05:56:42;;;;;;;6.40;3.40;;;;;;;6.50;89.67;102680.28;5012770;28;20025;-78
2022/10/19 05:59:12;;;;;;;5.68;3.45;;;;;;;6.51;89.38;102684.63;5013536;28;20036;-77
2022/10/19 06:01:37;;;;;;;6.20;3.80;;;;;;;6.46;89.23;102686.28;5011500;28;20211;-77
2022/10/19 06:04:03;;;;;;;6.82;3.83;;;;;;;6.44;89.57;102681.88;5012104;28;20466;-77
2022/10/19 06:06:29;;;;;;;7.20;3.92;;;;;;;6.45;89.70;102684.53;5011856;28;20057;-77
2022/10/19 06:08:56;;;;;;;8.32;3.88;;;;;;;6.43;89.59;102681.03;4997653;28;20034;-78
2022/10/19 06:11:24;;;;;;;7.45;3.90;;;;;;;6.42;89.71;102683.56;5008917;28;20109;-77
2022/10/19 06:13:52;;;;;;;7.40;4.20;;;;;;;6.42;89.76;102696.50;5011827;28;20023;-77
2022/10/19 06:16:18;;;;;;;6.60;3.70;;;;;;;6.41;89.27;102700.81;5004576;28;20262;-78
2022/10/19 06:18:44;;;;;;;6.72;3.92;;;;;;;6.41;89.00;102694.75;5012034;28;20041;-77
2022/10/19 06:21:22;;;;;;;7.45;4.20;;;;;;;6.43;89.40;102693.97;5013799;28;20033;-77
2022/10/19 06:23:56;;;;;;;7.90;4.00;;;;;;;6.43;89.56;102695.66;5013769;28;20036;-78
2022/10/19 06:26:23;;;;;;;8.15;4.10;;;;;;;6.43;89.69;102682.72;5006766;28;20064;-77
2022/10/19 06:28:49;;;;;;;7.72;4.47;;;;;;;6.41;89.45;102682.69;5012974;28;20033;-77
2022/10/19 06:31:15;;;;;;;7.25;4.15;;;;;;;6.42;90.12;102680.97;5013632;28;20091;-77
2022/10/19 06:33:43;;;;;;;9.50;4.40;;;;;;;6.44;89.89;102685.34;5012307;28;20029;-78
2022/10/19 06:36:14;;;;;;;7.78;4.05;;;;;;;6.45;89.59;102689.69;5009833;28;20472;-77
2022/10/19 06:38:40;;;;;;;8.88;4.38;;;;;;;6.45;89.68;102684.53;5012082;28;20026;-78
2022/10/19 06:41:06;;;;;;;7.50;4.57;;;;;;;6.48;89.67;102692.34;4993855;28;20563;-78
2022/10/19 06:43:33;;;;;;;8.32;4.47;;;;;;;6.49;90.48;102683.72;5012493;28;20030;-77
2022/10/19 06:46:02;;;;;;;7.93;4.95;;;;;;;6.51;90.10;102681.19;5011343;28;20061;-78
2022/10/19 06:48:27;;;;;;;7.85;4.55;;;;;;;6.52;90.28;102680.34;5011301;28;20053;-78
2022/10/19 06:50:57;;;;;;;7.20;4.82;;;;;;;6.57;90.47;102688.19;5011342;28;20064;-78
2022/10/19 06:53:23;;;;;;;8.13;4.60;;;;;;;6.59;90.29;102684.78;5011076;28;20018;-78
2022/10/19 06:55:48;;;;;;;6.65;4.78;;;;;;;6.62;90.53;102691.75;5011269;28;20400;-78
2022/10/19 06:58:13;;;;;;;7.47;4.80;;;;;;;6.65;90.37;102690.09;5011941;28;20496;-78
2022/10/19 07:00:38;;;;;;;8.85;5.03;;;;;;;6.70;90.74;102697.09;5009275;28;20190;-78
2022/10/19 07:03:04;;;;;;;9.13;5.07;;;;;;;6.74;90.62;102701.50;5010360;28;20045;-77
2022/10/19 07:05:29;;;;;;;10.77;5.18;;;;;;;6.76;90.77;102703.25;5009652;28;20370;-78
2022/10/19 07:07:56;;;;;;;9.70;5.10;;;;;;;6.80;90.81;102707.66;5003061;28;20030;-78
2022/10/19 07:10:21;;;;;;;8.38;4.60;;;;;;;6.82;91.05;102700.81;4984293;28;20023;-77
2022/10/19 07:12:47;;;;;;;11.05;5.22;;;;;;;6.86;90.78;102699.13;5006002;28;20390;-77
2022/10/19 07:15:12;;;;;;;7.70;5.07;;;;;;;6.89;90.74;102698.31;5006705;28;20030;-78
2022/10/19 07:17:37;;;;;;;7.90;4.85;;;;;;;6.92;90.69;102693.22;5000733;28;20034;-78
2022/10/19 07:20:03;;;;;;;9.27;5.43;;;;;;;6.95;91.18;102695.84;4982498;28;20036;-78
2022/10/19 07:22:28;;;;;;;7.43;5.05;;;;;;;6.99;90.90;102695.09;4999319;28;20382;-77
2022/10/19 07:24:53;;;;;;;8.75;5.10;;;;;;;7.03;91.22;102691.69;5002179;28;20038;-78
2022/10/19 07:27:19;;;;;;;7.63;5.32;;;;;;;7.05;90.97;102695.19;4999625;28;20076;-78
2022/10/19 07:29:44;;;;;;;9.65;5.70;;;;;;;7.10;91.42;102697.84;5009051;28;20041;-78
2022/10/19 07:32:09;;;;;;;8.75;5.43;;;;;;;7.15;91.57;102691.06;5007775;28;20358;-77
2022/10/19 07:34:34;;;;;;;9.73;5.30;;;;;;;7.18;91.48;102685.94;5008825;28;20034;-77
2022/10/19 07:37:00;;;;;;;8.02;5.45;;;;;;;7.24;91.51;102686.06;5012745;28;20197;-78
2022/10/19 07:39:26;;;;;;;7.78;5.20;;;;;;;7.28;91.63;102681.78;5010636;28;20037;-78
2022/10/19 07:41:51;;;;;;;6.35;4.95;;;;;;;7.34;91.89;102681.03;5008877;28;20033;-78
2022/10/19 07:44:17;;;;;;;7.13;5.20;;;;;;;7.38;92.07;102683.69;5006051;28;20033;-78
2022/10/19 07:46:42;;;;;;;7.35;5.30;;;;;;;7.42;92.17;102695.84;5011107;28;20049;-77
2022/10/19 07:49:12;;;;;;;9.18;5.00;;;;;;;7.49;92.21;102693.38;5010083;28;20443;-78
2022/10/19 07:51:38;;;;;;;8.45;4.68;;;;;;;7.53;92.09;102693.44;5010439;28;20029;-78
2022/10/19 07:54:03;;;;;;;6.95;4.50;;;;;;;7.60;92.14;102694.41;5010898;28;20025;-77
2022/10/19 07:56:29;;;;;;;6.95;4.03;;;;;;;7.64;92.25;102690.16;5016179;28;20025;-77
2022/10/19 07:58:57;;;;;;;7.88;4.55;;;;;;;7.69;92.51;102689.38;5010624;28;20055;-78
2022/10/19 08:01:28;;;;;;;6.30;3.72;;;;;;;7.75;92.21;102689.50;5014222;28;20026;-78
2022/10/19 08:03:54;;;;;;;6.30;3.88;;;;;;;7.81;92.00;102677.50;5008362;28;20030;-78
2022/10/19 08:06:20;;;;;;;6.53;4.10;;;;;;;7.84;92.29;102675.81;5014803;28;20093;-78
2022/10/19 08:08:47;;;;;;;8.43;3.85;;;;;;;7.91;92.24;102669.00;5009675;28;20038;-78
2022/10/19 08:11:15;;;;;;;7.60;3.97;;;;;;;7.99;91.92;102671.69;5008592;28;20495;-78
2022/10/19 08:13:41;;;;;;;7.65;4.03;;;;;;;8.03;92.15;102661.38;5011670;28;20041;-78
2022/10/19 08:16:21;;;;;;;6.63;3.95;;;;;;;8.11;92.04;102668.41;5010667;28;20030;-78
2022/10/19 08:18:46;;;;;;;5.55;3.75;;;;;;;8.16;92.41;102664.19;4992942;28;20381;-78
2022/10/19 08:21:11;;;;;;;5.90;3.50;;;;;;;8.23;92.33;102667.72;5011783;28;20021;-78
2022/10/19 08:23:37;;;;;;;6.75;3.83;;;;;;;8.27;92.37;102667.78;5011375;28;22050;-78
2022/10/19 08:26:02;;;;;;;6.55;3.55;;;;;;;8.33;92.15;102661.78;5007777;28;20029;-79
2022/10/19 08:28:27;;;;;;;7.28;3.55;;;;;;;8.39;92.20;102666.19;5011601;28;20040;-78
2022/10/19 08:30:56;;;;;;;7.40;3.58;;;;;;;8.44;92.21;102667.13;5011354;28;20030;-78
2022/10/19 08:33:22;;;;;;;7.55;3.50;;;;;;;8.49;91.95;102668.09;4994049;28;20343;-78
2022/10/19 08:35:47;;;;;;;6.88;2.97;;;;;;;8.53;91.65;102664.69;5009090;28;20117;-78
2022/10/19 08:38:12;;;;;;;6.82;3.17;;;;;;;8.61;91.37;102667.38;5009871;28;20037;-78
2022/10/19 08:40:38;;;;;;;5.88;3.10;;;;;;;8.67;91.41;102671.75;5009765;28;20053;-77
2022/10/19 08:43:12;;;;;;;5.25;3.10;;;;;;;8.70;91.52;102657.09;5010391;28;20107;-78
2022/10/19 08:45:39;;;;;;;6.97;3.10;;;;;;;8.77;91.33;102652.84;5009725;28;20030;-78
2022/10/19 08:48:27;;;;;;;6.53;2.83;;;;;;;8.83;91.33;102649.44;5013279;28;20467;-78
2022/10/19 08:50:54;;;;;;;5.85;3.05;;;;;;;8.88;90.90;102639.97;5008825;28;20045;-78
2022/10/19 08:53:34;;;;;;;7.90;2.92;;;;;;;8.92;90.59;102642.63;5010603;28;20025;-78
2022/10/19 08:56:31;;;;;;;6.95;3.15;;;;;;;8.99;90.32;102637.50;5007845;28;20470;-78
2022/10/19 08:59:17;;;;;;;5.53;2.97;;;;;;;9.05;90.49;102624.59;5010945;28;20029;-78
2022/10/19 09:02:00;;;;;;;8.00;3.00;;;;;;;9.11;90.89;102627.22;5008589;28;20049;-78
2022/10/19 09:04:35;;;;;;;4.35;2.80;;;;;;;9.18;90.44;102618.66;5004577;28;20034;-77
2022/10/19 09:07:27;;;;;;;8.63;2.90;;;;;;;9.25;90.14;102640.34;5008930;28;20091;-77
2022/10/19 09:10:17;;;;;;;4.78;2.70;;;;;;;9.32;89.88;102636.06;5009625;28;20057;-78
2022/10/19 09:12:57;;;;;;;4.05;2.67;;;;;;;9.39;89.59;102625.75;5007881;28;20025;-78
2022/10/19 09:15:44;;;;;;;5.70;2.63;;;;;;;9.45;89.97;102624.91;5002954;28;20123;-78
2022/10/19 09:18:24;;;;;;;5.28;2.85;;;;;;;9.52;89.17;102624.13;5008451;28;20018;-78
2022/10/19 09:20:54;;;;;;;5.50;2.40;;;;;;;9.59;89.18;102618.94;5006930;28;20073;-78
2022/10/19 09:23:28;;;;;;;5.90;2.35;;;;;;;9.64;88.64;102614.66;5034523;28;20358;-78
2022/10/19 09:25:55;;;;;;;5.13;2.60;;;;;;;9.69;88.61;102625.97;5025782;28;20032;-78
2022/10/19 09:28:41;;;;;;;6.20;2.30;;;;;;;9.76;88.82;102617.31;5013785;28;20105;-78
2022/10/19 09:31:14;;;;;;;6.35;2.20;;;;;;;9.82;87.63;102606.97;5013497;28;20029;-78
2022/10/19 09:33:42;;;;;;;4.28;2.08;;;;;;;9.86;87.81;102603.53;5014890;28;20029;-78
2022/10/19 09:36:08;;;;;;;7.78;2.03;;;;;;;9.94;87.30;102605.28;5014487;28;20034;-78
2022/10/19 09:38:33;;;;;;;5.45;1.98;;;;;;;9.99;86.32;102604.44;5014473;28;20084;-78
2022/10/19 09:41:18;;;;;;;3.72;2.20;;;;;;;10.05;86.64;102610.56;5013610;28;20030;-78
2022/10/19 09:43:53;;;;;;;5.88;2.20;;;;;;;10.09;85.90;102615.78;4996544;28;20096;-78
2022/10/19 09:46:51;;;;;;;6.03;1.90;;;;;;;10.15;86.31;102617.56;5009128;28;20101;-78
2022/10/19 09:49:18;;;;;;;5.22;1.90;;;;;;;10.18;86.15;102610.63;4994500;28;20501;-78
2022/10/19 09:51:50;;;;;;;5.18;1.90;;;;;;;10.25;85.32;102610.63;5012555;28;20100;-78
2022/10/19 09:54:35;;;;;;;7.07;2.25;;;;;;;10.32;85.11;102609.81;5009653;28;20437;-79
2022/10/19 09:57:02;;;;;;;5.38;1.88;;;;;;;10.36;84.88;102608.09;5006678;28;20049;-78
2022/10/19 09:59:32;;;;;;;5.38;2.00;;;;;;;10.42;85.47;102597.75;5006503;28;20033;-78
2022/10/19 10:02:19;;;;;;;5.38;2.38;;;;;;;10.46;85.62;102605.56;5008726;28;20018;-78
2022/10/19 10:04:55;;;;;;;7.20;2.00;;;;;;;10.52;85.11;102601.25;5006948;28;20155;-78
2022/10/19 10:07:25;;;;;;;4.35;1.88;;;;;;;10.55;84.04;102589.09;5008670;28;20026;-78
2022/10/19 10:09:51;;;;;;;4.93;2.03;;;;;;;10.59;83.71;102585.66;5008129;28;20058;-78
2022/10/19 10:12:17;;;;;;;7.20;1.95;;;;;;;10.63;83.55;102592.59;5008085;28;20032;-78
2022/10/19 10:14:43;;;;;;;6.38;2.08;;;;;;;10.66;83.69;102586.53;5006554;28;20030;-78
2022/10/19 10:17:19;;;;;;;7.07;1.83;;;;;;;10.70;84.07;102588.28;4988878;28;20030;-78
2022/10/19 10:20:17;;;;;;;5.13;1.90;;;;;;;10.78;84.34;102576.13;5008041;28;20034;-78
2022/10/19 10:22:51;;;;;;;4.68;1.92;;;;;;;10.87;83.99;102569.22;5008050;28;20034;-78
2022/10/19 10:25:17;;;;;;;7.32;2.00;;;;;;;10.94;84.20;102570.94;5008087;28;20021;-78
2022/10/19 10:27:54;;;;;;;5.53;2.05;;;;;;;11.00;82.84;102570.09;5006255;28;20029;-78
2022/10/19 10:30:20;;;;;;;7.53;1.73;;;;;;;11.04;81.21;102559.66;5006649;28;20049;-78
2022/10/19 10:32:51;;;;;;;8.82;1.88;;;;;;;11.10;82.10;102566.59;5007011;28;20480;-78
2022/10/19 10:35:48;;;;;;;4.55;1.58;;;;;;;11.17;82.84;102567.47;5007969;28;20030;-78
2022/10/19 10:38:22;;;;;;;7.82;1.70;;;;;;;11.21;80.06;102575.28;4989031;28;20045;-78
2022/10/19 10:40:53;;;;;;;6.93;1.73;;;;;;;11.25;80.93;102570.97;5005910;28;20048;-78
2022/10/19 10:43:29;;;;;;;7.05;2.28;;;;;;;11.27;80.24;102564.00;5006767;28;20671;-77
2022/10/19 10:46:02;;;;;;;2.40;1.55;;;;;;;11.31;79.60;102564.88;5003358;28;20028;-78
2022/10/19 10:48:37;;;;;;;7.78;2.00;;;;;;;11.33;79.85;102561.38;5004921;28;20053;-77
2022/10/19 10:51:09;;;;;;;6.18;2.45;;;;;;;11.36;79.14;102560.50;5005211;28;20393;-78
2022/10/19 10:53:42;;;;;;;4.93;2.00;;;;;;;11.36;78.84;102555.28;4987582;28;20034;-78
2022/10/19 10:56:21;;;;;;;5.70;2.40;;;;;;;11.37;79.20;102555.31;4991252;28;20021;-78
2022/10/19 10:58:59;;;;;;;5.20;2.20;;;;;;;11.38;79.70;102546.63;5006496;28;20385;-78
2022/10/19 11:01:38;;;;;;;6.13;2.20;;;;;;;11.41;79.05;102545.72;5005016;28;20030;-77
2022/10/19 11:04:19;;;;;;;5.60;2.40;;;;;;;11.39;78.45;102537.94;5004828;28;20444;-78
2022/10/19 11:06:54;;;;;;;4.82;2.25;;;;;;;11.41;78.66;102534.44;5005597;28;20773;-78
2022/10/19 11:09:43;;;;;;;7.53;2.10;;;;;;;11.43;80.03;102524.91;4988497;28;20028;-78
2022/10/19 11:12:14;;;;;;;7.80;2.47;;;;;;;11.43;79.29;102517.06;5003920;28;20516;-78
2022/10/19 11:14:52;;;;;;;7.45;2.30;;;;;;;11.46;79.69;102519.66;5005494;28;20026;-78
2022/10/19 11:17:23;;;;;;;6.88;2.33;;;;;;;11.47;78.95;102514.44;5004709;28;20102;-77
2022/10/19 11:19:52;;;;;;;6.32;2.20;;;;;;;11.49;79.49;102507.50;5003394;28;20584;-78
2022/10/19 11:22:50;;;;;;;5.38;2.05;;;;;;;11.53;79.37;102513.56;5004799;28;20030;-77
2022/10/19 11:25:31;;;;;;;4.18;2.20;;;;;;;11.55;78.99;102511.81;5004482;28;20123;-77
2022/10/19 11:28:15;;;;;;;4.88;2.25;;;;;;;11.61;79.81;102511.81;5003918;28;20572;-78
2022/10/19 11:30:50;;;;;;;5.60;2.25;;;;;;;11.65;78.38;102508.31;5006026;28;20038;-77
2022/10/19 11:33:51;;;;;;;7.38;3.05;;;;;;;11.68;79.10;102508.28;5007519;28;20041;-77
2022/10/19 11:36:36;;;;;;;7.20;3.08;;;;;;;11.74;78.62;102509.16;5007465;28;20500;-78
2022/10/19 11:39:20;;;;;;;6.30;3.00;;;;;;;11.75;78.20;102497.84;5009853;28;20504;-78
2022/10/19 11:41:55;;;;;;;6.68;2.75;;;;;;;11.76;78.20;102500.44;5009545;28;20037;-78
2022/10/19 11:44:44;;;;;;;6.70;2.92;;;;;;;11.76;77.57;102500.44;5007436;28;20029;-78